CEST,Max TemperatureF,Mean TemperatureF,Min TemperatureF,Max Dew PointF,MeanDew PointF,Min DewpointF,Max Humidity, Mean Humidity, Min Humidity, Max Sea Level PressureIn, Mean Sea Level PressureIn, Min Sea Level PressureIn, Max VisibilityMiles, Mean VisibilityMiles, Min VisibilityMiles, Max Wind SpeedMPH, Mean Wind SpeedMPH, Max Gust SpeedMPH,PrecipitationIn, CloudCover, Events, WindDirDegrees
2013-9-1,87,78,69,66,53,45,69,45,25,30.06,30.03,30.01,6,6,6,12,6,,0.00,2,,7
2013-9-2,86,77,68,66,58,50,78,55,29,30.15,30.09,30.04,6,6,6,12,5,,0.00,1,,342
2013-9-3,87,78,68,63,52,45,69,41,23,30.18,30.16,30.12,6,6,6,10,5,,0.00,1,,23
2013-9-4,91,80,68,57,50,46,53,36,21,30.18,30.14,30.09,,,,14,7,20,0.00,,,31
2013-9-5,87,78,68,66,56,48,69,49,29,30.09,30.03,29.95,,,,13,4,,0.00,,,266
2013-9-6,87,78,68,68,60,55,78,57,33,29.98,29.93,29.89,6,6,6,10,4,,0.00,1,,346
2013-9-7,87,78,69,70,65,61,78,64,43,30.12,30.04,29.98,6,6,6,12,3,,0.00,1,,317
2013-9-8,87,78,69,70,67,59,83,70,40,30.15,30.14,30.12,6,6,6,10,3,,0.00,1,,246
2013-9-9,82,76,71,73,68,64,89,77,62,30.12,30.10,30.06,6,6,5,14,4,,0.00,3,,237
2013-9-10,78,73,68,68,65,61,88,70,57,30.12,30.06,29.95,6,6,0,14,4,,0.00,4,Rain-Thunderstorm,212
2013-9-11,80,73,66,66,64,61,94,71,51,30.04,30.01,29.98,6,6,0,13,6,,0.00,3,Rain-Thunderstorm,240
2013-9-12,77,72,68,66,60,52,88,66,47,30.01,29.98,29.95,6,6,5,16,6,28,0.00,3,Rain-Thunderstorm,256
2013-9-13,78,71,64,59,56,52,77,60,39,30.12,30.04,29.98,6,6,6,12,4,,0.00,2,,331
2013-9-14,78,70,62,63,60,57,82,68,51,30.12,30.09,30.06,6,6,6,13,4,,0.00,2,,251
2013-9-15,77,70,62,63,60,57,88,68,57,30.09,29.99,29.83,6,6,6,12,4,,0.00,4,,206
2013-9-16,78,72,66,64,60,52,88,67,39,29.83,29.77,29.74,6,6,4,17,7,23,0.00,2,Rain-Thunderstorm,258
2013-9-17,77,70,64,66,60,54,94,70,50,29.77,29.71,29.68,6,6,3,28,8,43,0.00,4,Rain,244
2013-9-18,75,68,60,63,58,55,83,70,57,29.77,29.76,29.71,6,6,6,15,4,,0.00,3,,295
2013-9-19,78,72,66,64,61,55,83,70,53,29.86,29.78,29.74,6,6,6,14,4,,0.00,5,Rain,262
2013-9-20,82,72,62,63,58,54,78,62,37,30.04,29.94,29.86,6,6,6,9,3,,0.00,4,,25
2013-9-21,84,74,64,64,57,43,83,61,23,30.12,30.07,30.04,6,6,6,13,5,20,0.00,2,,5
2013-9-22,78,71,64,55,47,39,60,42,28,30.18,30.14,30.12,6,6,6,17,9,26,0.00,2,,47
2013-9-23,78,69,60,57,49,45,73,51,34,30.15,30.12,30.06,6,6,6,14,5,,0.00,2,,360
2013-9-24,78,69,60,61,57,52,83,66,44,30.09,30.06,30.04,,,,10,4,,0.00,,,335
2013-9-25,77,70,62,63,60,57,88,73,54,30.06,30.04,30.01,6,6,6,10,3,,0.00,5,,201
2013-9-26,77,70,62,66,61,55,88,75,61,30.04,30.02,29.98,6,6,6,10,3,,0.00,3,,193
2013-9-27,78,71,64,68,65,61,94,80,65,30.01,29.99,29.98,6,6,4,12,3,,0.00,3,,183
2013-9-28,78,70,62,66,64,61,94,78,57,29.98,29.96,29.92,6,5,2,9,3,,0.00,3,Fog,175
2013-9-29,78,71,64,68,64,61,94,75,54,29.95,29.84,29.74,6,5,0,10,3,,0.00,4,Thunderstorm,187
2013-9-30,77,54,32,70,64,-4,88,78,21,29.74,29.64,29.59,6,6,3,15,8,28,0.00,5,Rain-Thunderstorm,228